Time;durP1;ratioP1;P1;durP2;ratioP2;P2;SDS_P1;SDS_P2;PMS_P1;PMS_P2;Temp;Humidity;BMP_temperature;BMP_pressure;BME280_temperature;BME280_humidity;BME280_pressure;Samples;Min_cycle;Max_cycle;Signal;HPM_P1;HPM_P2
2022/01/27 00:03:17;;;;;;;3.37;3.17;;;;;;;2.31;86.19;102542.16;4422774;32;20083;-74
2022/01/27 00:05:49;;;;;;;3.60;3.40;;;;;;;2.07;86.18;102511.66;4420646;32;20724;-73
2022/01/27 00:08:16;;;;;;;2.83;2.72;;;;;;;2.25;86.42;102552.44;4420858;32;20091;-75
2022/01/27 00:13:12;;;;;;;3.42;3.22;;;;;;;1.79;86.64;102472.47;4437522;32;20072;-74
2022/01/27 00:15:39;;;;;;;2.65;2.55;;;;;;;2.13;86.58;102535.91;4419112;32;21213;-73
2022/01/27 00:18:12;;;;;;;2.67;2.58;;;;;;;2.09;86.47;102512.53;4420448;32;20076;-72
2022/01/27 00:20:37;;;;;;;3.75;3.47;;;;;;;2.11;86.18;102506.53;4407712;32;20077;-75
2022/01/27 00:23:03;;;;;;;4.95;4.65;;;;;;;2.10;86.37;102511.66;4420491;32;20061;-73
2022/01/27 00:25:28;;;;;;;4.85;4.65;;;;;;;2.08;86.28;102508.19;4421948;32;20064;-76
2022/01/27 00:27:53;;;;;;;2.70;2.60;;;;;;;1.99;85.81;102503.78;4418644;32;20230;-72
2022/01/27 00:30:19;;;;;;;4.12;3.95;;;;;;;1.06;86.26;102367.12;4420812;32;20599;-71
2022/01/27 00:32:44;;;;;;;2.70;2.60;;;;;;;1.91;86.94;102508.88;4415993;32;20178;-72
2022/01/27 00:35:10;;;;;;;3.37;3.28;;;;;;;2.01;87.13;102507.25;4408174;32;20523;-72
2022/01/27 00:37:36;;;;;;;4.72;4.37;;;;;;;-0.87;85.68;102081.06;4423984;32;20083;-73
2022/01/27 00:40:01;;;;;;;2.80;2.70;;;;;;;1.94;86.89;102511.47;4417721;32;20464;-73
2022/01/27 00:42:28;;;;;;;4.85;4.62;;;;;;;1.83;86.92;102481.16;4407101;32;20440;-74
2022/01/27 00:44:54;;;;;;;2.70;2.60;;;;;;;1.78;87.44;102465.53;4409649;32;20072;-76
2022/01/27 00:47:19;;;;;;;3.37;3.25;;;;;;;0.27;87.14;102238.53;4417804;32;20076;-73
2022/01/27 00:49:45;;;;;;;3.40;3.20;;;;;;;1.94;87.92;102488.16;4421844;32;20676;-72
2022/01/27 00:52:15;;;;;;;2.70;2.60;;;;;;;1.97;87.94;102483.03;4420956;32;20150;-74
2022/01/27 00:54:42;;;;;;;2.80;2.70;;;;;;;1.94;88.30;102484.72;4419340;32;20167;-72
2022/01/27 00:57:37;;;;;;;2.90;2.80;;;;;;;1.94;88.20;102479.53;4422317;32;20572;-74
2022/01/27 01:00:05;;;;;;;2.70;2.60;;;;;;;1.97;88.48;102470.09;4427449;32;20351;-71
2022/01/27 01:08:10;;;;;;;2.80;2.70;;;;;;;2.04;88.11;102426.16;4422367;32;20090;-72
2022/01/27 01:15:43;;;;;;;2.80;2.70;;;;;;;1.54;87.69;102339.28;4418701;32;20072;-73
2022/01/27 01:31:43;;;;;;;4.35;4.15;;;;;;;1.94;88.84;102394.09;4416217;32;20896;-74
2022/01/27 01:34:24;;;;;;;2.75;2.65;;;;;;;1.97;88.07;102401.91;4420542;32;20068;-74
2022/01/27 01:37:00;;;;;;;3.55;3.35;;;;;;;1.94;88.58;102397.56;4413476;32;20356;-72
2022/01/27 01:39:29;;;;;;;4.60;4.40;;;;;;;1.90;88.55;102407.88;4412673;32;20068;-74
2022/01/27 01:41:55;;;;;;;2.97;2.87;;;;;;;1.87;88.83;102400.94;4420540;32;20692;-72
2022/01/27 01:44:20;;;;;;;5.22;4.93;;;;;;;1.94;88.96;102405.31;4406297;32;20191;-75
2022/01/27 01:46:46;;;;;;;3.20;3.10;;;;;;;1.90;88.75;102411.31;4410477;32;20076;-71
2022/01/27 01:49:11;;;;;;;3.40;3.20;;;;;;;1.93;88.50;102405.31;4421706;32;20079;-74
2022/01/27 01:51:37;;;;;;;3.80;3.60;;;;;;;1.90;89.10;102403.53;4426545;32;20625;-73
2022/01/27 01:54:03;;;;;;;2.70;2.60;;;;;;;1.58;88.77;102354.00;4419475;32;20083;-73
2022/01/27 01:56:28;;;;;;;4.85;4.55;;;;;;;1.61;89.09;102358.38;4423877;32;20076;-77
2022/01/27 01:58:54;;;;;;;2.70;2.60;;;;;;;1.86;88.75;102409.53;4409881;32;20086;-74
2022/01/27 02:01:19;;;;;;;3.97;3.80;;;;;;;1.90;89.25;102408.72;4426600;32;20153;-73
2022/01/27 02:03:46;;;;;;;3.03;2.92;;;;;;;1.92;89.35;102404.44;4425018;32;20596;-72
2022/01/27 02:06:19;;;;;;;3.00;2.90;;;;;;;1.93;89.77;102405.31;4428527;32;21438;-74
2022/01/27 02:09:06;;;;;;;3.00;2.90;;;;;;;1.94;89.50;102399.28;4414463;32;20107;-75
2022/01/27 02:19:44;;;;;;;3.00;2.90;;;;;;;2.01;90.01;102376.94;4417070;32;20232;-74
2022/01/27 02:22:09;;;;;;;3.10;3.00;;;;;;;2.06;89.65;102367.47;4416099;32;20866;-73
2022/01/27 02:24:35;;;;;;;3.47;3.37;;;;;;;2.04;89.87;102371.78;4410533;32;20079;-72
2022/01/27 02:27:02;;;;;;;2.90;2.80;;;;;;;2.04;89.81;102370.03;4413107;32;20061;-73
2022/01/27 02:29:28;;;;;;;3.80;3.67;;;;;;;2.07;89.68;102375.25;4414497;32;20513;-72
2022/01/27 02:31:54;;;;;;;3.50;3.40;;;;;;;2.10;89.54;102366.66;4409909;32;20060;-74
2022/01/27 02:34:20;;;;;;;4.93;4.70;;;;;;;1.91;90.10;102330.22;4427733;32;20072;-75
2022/01/27 02:36:45;;;;;;;3.40;3.20;;;;;;;1.90;90.45;102317.25;4432204;32;20079;-71
2022/01/27 02:39:11;;;;;;;2.72;2.62;;;;;;;2.13;89.94;102345.97;4424240;32;20075;-73
2022/01/27 02:41:42;;;;;;;2.90;2.80;;;;;;;2.09;89.37;102333.84;4424985;32;20637;-74
2022/01/27 02:44:07;;;;;;;2.90;2.80;;;;;;;1.65;89.79;102256.63;4432204;32;20068;-75
2022/01/27 02:46:41;;;;;;;4.65;4.45;;;;;;;2.12;89.48;102346.81;4428423;32;20664;-74
2022/01/27 02:49:06;;;;;;;3.30;3.10;;;;;;;2.09;89.38;102341.63;4427364;32;20060;-71
2022/01/27 02:51:34;;;;;;;5.05;4.75;;;;;;;2.10;89.43;102330.38;4425557;32;20067;-72
2022/01/27 02:54:00;;;;;;;2.83;2.72;;;;;;;2.09;89.85;102323.50;4428030;32;20935;-75
2022/01/27 02:56:25;;;;;;;4.15;3.95;;;;;;;2.13;89.55;102322.66;4429241;32;20087;-75
2022/01/27 02:58:50;;;;;;;3.75;3.55;;;;;;;2.17;89.35;102316.66;4425490;32;20661;-75
2022/01/27 03:01:20;;;;;;;2.85;2.75;;;;;;;1.72;89.12;102261.84;4413983;32;20123;-75
2022/01/27 03:03:46;;;;;;;3.22;3.12;;;;;;;2.14;89.86;102332.16;4425102;32;20088;-73
2022/01/27 03:06:11;;;;;;;2.78;2.67;;;;;;;1.64;89.25;102254.88;4422450;32;20074;-75
2022/01/27 03:08:36;;;;;;;3.62;3.53;;;;;;;2.07;89.94;102325.19;4425839;32;20141;-72
2022/01/27 03:11:03;;;;;;;3.30;3.20;;;;;;;2.12;89.61;102339.03;4417358;32;20076;-74
2022/01/27 03:13:30;;;;;;;4.78;4.57;;;;;;;2.15;89.60;102324.41;4434891;32;20149;-74
2022/01/27 03:15:55;;;;;;;2.80;2.70;;;;;;;1.70;89.11;102247.16;4424398;32;20144;-75
2022/01/27 03:18:21;;;;;;;5.53;5.32;;;;;;;0.59;88.97;102053.00;4409328;32;20566;-72
2022/01/27 03:20:46;;;;;;;3.40;3.30;;;;;;;2.11;89.42;102301.94;4417416;32;20059;-73
2022/01/27 03:23:11;;;;;;;2.90;2.80;;;;;;;2.12;89.83;102290.69;4427618;32;20122;-72
2022/01/27 03:25:37;;;;;;;3.10;2.80;;;;;;;2.13;89.85;102297.63;4443575;32;20068;-73
2022/01/27 03:28:03;;;;;;;3.10;3.00;;;;;;;0.93;89.84;102096.41;4432001;32;20576;-75
2022/01/27 03:30:28;;;;;;;3.05;2.95;;;;;;;1.18;89.00;102131.13;4425489;32;20741;-74
2022/01/27 03:32:54;;;;;;;2.78;2.67;;;;;;;2.05;89.79;102282.88;4429583;32;20075;-74
2022/01/27 03:35:19;;;;;;;2.60;2.50;;;;;;;2.13;89.89;102292.44;4417518;32;20498;-75
2022/01/27 03:37:44;;;;;;;3.72;3.55;;;;;;;2.16;89.93;102284.69;4431725;32;20466;-73
2022/01/27 03:40:10;;;;;;;2.60;2.50;;;;;;;2.20;89.77;102275.22;4419423;32;20068;-73
2022/01/27 03:42:43;;;;;;;3.70;3.60;;;;;;;2.11;89.58;102264.81;4437231;32;20869;-72
2022/01/27 03:45:09;;;;;;;3.33;3.17;;;;;;;1.46;89.73;102154.66;4418045;32;20088;-73
2022/01/27 03:47:34;;;;;;;3.90;3.78;;;;;;;2.19;89.63;102268.31;4420610;32;20297;-73
2022/01/27 03:50:00;;;;;;;3.20;3.00;;;;;;;0.75;88.92;102027.34;4423979;32;20069;-72
2022/01/27 03:52:25;;;;;;;4.85;4.65;;;;;;;2.16;89.26;102266.56;4407231;32;20064;-75
2022/01/27 03:54:50;;;;;;;2.95;2.85;;;;;;;2.14;89.59;102262.22;4424680;32;20072;-73
2022/01/27 03:57:16;;;;;;;2.72;2.62;;;;;;;2.15;89.44;102259.66;4421462;32;20087;-74
2022/01/27 03:59:41;;;;;;;2.67;2.58;;;;;;;2.16;89.60;102266.56;4423239;32;20076;-74
2022/01/27 04:02:07;;;;;;;3.20;3.10;;;;;;;2.16;89.47;102268.28;4413054;32;20068;-72
2022/01/27 04:04:32;;;;;;;5.00;4.80;;;;;;;2.17;89.60;102267.44;4420414;32;20578;-76
2022/01/27 04:06:58;;;;;;;3.28;3.15;;;;;;;2.14;89.80;102277.75;4418405;32;20591;-73
2022/01/27 04:09:24;;;;;;;4.18;3.97;;;;;;;2.17;89.64;102276.06;4404867;32;20160;-74
2022/01/27 04:11:50;;;;;;;3.25;3.15;;;;;;;2.20;89.67;102272.62;4419671;32;20543;-73
2022/01/27 04:14:15;;;;;;;3.00;2.90;;;;;;;2.21;90.13;102268.34;4408214;32;20497;-73
2022/01/27 04:16:40;;;;;;;2.65;2.55;;;;;;;2.21;89.72;102261.44;4419130;32;20824;-74
2022/01/27 04:19:06;;;;;;;3.72;3.58;;;;;;;2.21;89.63;102256.25;4408764;32;20238;-75
2022/01/27 04:21:31;;;;;;;3.87;3.72;;;;;;;2.20;89.72;102249.31;4416271;32;20072;-74
2022/01/27 04:23:56;;;;;;;3.28;3.17;;;;;;;2.18;89.96;102232.91;4407179;32;20075;-75
2022/01/27 04:26:29;;;;;;;4.35;4.15;;;;;;;2.24;90.06;102248.50;4409651;32;20567;-73
2022/01/27 04:28:55;;;;;;;2.90;2.80;;;;;;;2.24;90.08;102240.72;4392463;32;20092;-72
2022/01/27 04:31:22;;;;;;;3.45;3.33;;;;;;;2.27;90.46;102238.16;4403461;32;20069;-75
2022/01/27 04:33:47;;;;;;;3.17;3.08;;;;;;;2.28;90.35;102237.28;4405488;32;20176;-72
2022/01/27 04:36:29;;;;;;;3.50;3.30;;;;;;;2.34;90.15;102228.69;4390218;32;20064;-74
2022/01/27 04:41:43;;;;;;;4.28;4.07;;;;;;;1.99;90.02;102167.19;4403596;32;20080;-74
2022/01/27 04:44:21;;;;;;;3.25;3.08;;;;;;;2.21;90.37;102206.19;4412075;32;20586;-75
2022/01/27 04:49:14;;;;;;;2.75;2.65;;;;;;;2.42;90.36;102228.75;4404568;32;20077;-74
2022/01/27 04:51:40;;;;;;;2.80;2.70;;;;;;;2.42;90.49;102218.38;4404041;32;20151;-74
2022/01/27 04:54:18;;;;;;;2.60;2.50;;;;;;;1.71;90.82;102091.06;4399101;32;20069;-73
2022/01/27 04:56:44;;;;;;;3.67;3.53;;;;;;;2.49;90.72;102215.84;4414083;32;20516;-74
2022/01/27 04:59:20;;;;;;;2.87;2.78;;;;;;;2.49;90.56;102210.66;4400151;32;20567;-76
2022/01/27 05:01:54;;;;;;;3.40;3.30;;;;;;;2.44;90.54;102190.75;4410155;32;20096;-73
2022/01/27 05:04:22;;;;;;;2.90;2.80;;;;;;;2.53;90.94;102201.19;4402206;32;20123;-73
2022/01/27 05:06:49;;;;;;;5.25;3.40;;;;;;;2.55;90.94;102177.00;4409847;32;20060;-73
2022/01/27 05:09:14;;;;;;;5.87;3.42;;;;;;;2.56;90.68;102177.88;4397201;32;20065;-75
2022/01/27 05:11:56;;;;;;;4.05;3.65;;;;;;;2.48;90.85;102143.28;4409586;32;20139;-72
2022/01/27 05:14:25;;;;;;;3.45;3.33;;;;;;;2.59;90.44;102159.75;4418194;32;20974;-72
2022/01/27 05:16:54;;;;;;;3.40;3.30;;;;;;;2.60;90.81;102154.56;4403334;32;20092;-74
2022/01/27 05:19:20;;;;;;;4.07;3.90;;;;;;;2.24;90.62;102087.03;4403494;32;20100;-72
2022/01/27 05:21:45;;;;;;;3.25;3.15;;;;;;;2.59;90.94;102145.06;4400801;32;20578;-74
2022/01/27 05:24:11;;;;;;;2.85;2.75;;;;;;;2.60;91.44;102141.59;4388337;32;20073;-74
2022/01/27 05:26:36;;;;;;;4.43;4.22;;;;;;;2.64;91.27;102142.47;4420455;32;20133;-73
2022/01/27 05:29:06;;;;;;;3.60;3.47;;;;;;;2.68;91.02;102144.22;4414279;32;20180;-72
2022/01/27 05:31:31;;;;;;;8.82;5.78;;;;;;;2.71;91.33;102136.47;4416441;32;20072;-74
2022/01/27 05:33:57;;;;;;;3.12;3.03;;;;;;;2.74;91.20;102133.00;4416651;32;20060;-72
2022/01/27 05:36:22;;;;;;;4.37;4.18;;;;;;;2.53;91.21;102092.34;4413095;32;20857;-74
2022/01/27 05:38:47;;;;;;;3.20;3.10;;;;;;;2.84;91.07;102129.59;4419999;32;20072;-72
2022/01/27 05:41:14;;;;;;;3.08;2.97;;;;;;;2.87;91.15;102124.44;4401582;32;20068;-72
2022/01/27 05:43:40;;;;;;;3.00;2.90;;;;;;;2.58;91.11;102082.84;4418468;32;20092;-74
2022/01/27 05:46:05;;;;;;;3.97;3.78;;;;;;;2.52;91.02;102059.50;4423432;32;20804;-72
2022/01/27 05:48:30;;;;;;;4.65;4.45;;;;;;;2.95;91.19;102117.53;4417746;32;20100;-74
2022/01/27 05:50:56;;;;;;;3.35;3.22;;;;;;;3.05;90.92;102125.31;4422477;32;20051;-72
2022/01/27 05:53:22;;;;;;;4.35;4.15;;;;;;;3.04;90.94;102119.25;4412728;32;20072;-76
2022/01/27 05:55:48;;;;;;;3.17;3.08;;;;;;;3.05;90.94;102118.41;4421465;32;20061;-75
2022/01/27 05:58:13;;;;;;;4.70;3.75;;;;;;;3.10;90.96;102113.22;4419385;32;20061;-73
2022/01/27 06:00:39;;;;;;;4.40;4.10;;;;;;;2.76;90.74;102048.34;4418006;32;20059;-74
2022/01/27 06:03:04;;;;;;;3.37;3.17;;;;;;;3.17;91.01;102105.47;4423314;32;20591;-76
2022/01/27 06:05:29;;;;;;;4.37;4.18;;;;;;;3.17;91.17;102100.28;4419041;32;20067;-72
2022/01/27 06:07:55;;;;;;;3.50;3.30;;;;;;;3.21;91.26;102095.97;4418689;32;20138;-74
2022/01/27 06:10:20;;;;;;;3.92;3.72;;;;;;;3.27;91.30;102090.78;4415587;32;20985;-73
2022/01/27 06:12:53;;;;;;;3.30;3.20;;;;;;;3.36;91.41;102072.59;4416383;32;20439;-74
2022/01/27 06:15:19;;;;;;;3.53;3.40;;;;;;;3.38;91.37;102083.84;4418310;32;21048;-74
2022/01/27 06:17:45;;;;;;;3.00;2.90;;;;;;;3.34;91.11;102065.69;4420826;32;20076;-72
2022/01/27 06:20:10;;;;;;;4.68;4.47;;;;;;;3.48;91.04;102083.84;4419287;32;20067;-76
2022/01/27 06:22:36;;;;;;;4.25;4.05;;;;;;;3.18;90.96;102025.91;4415881;32;21023;-73
2022/01/27 06:25:01;;;;;;;3.80;3.62;;;;;;;3.53;91.05;102064.81;4415745;32;20115;-74
2022/01/27 06:27:27;;;;;;;6.00;5.70;;;;;;;3.56;91.00;102064.78;4412471;32;20057;-74
2022/01/27 06:29:52;;;;;;;3.10;3.00;;;;;;;3.51;91.27;102037.16;4421224;32;20617;-75
2022/01/27 06:32:17;;;;;;;3.67;3.55;;;;;;;3.65;90.74;102052.66;4412424;32;20104;-75
2022/01/27 06:34:43;;;;;;;4.05;3.75;;;;;;;3.70;90.68;102057.00;4424241;32;20069;-72
2022/01/27 06:37:08;;;;;;;3.85;3.65;;;;;;;3.65;90.39;102026.72;4407184;32;20329;-74
2022/01/27 06:39:33;;;;;;;6.25;5.95;;;;;;;3.78;90.10;102038.81;4420086;32;20143;-73
2022/01/27 06:42:01;;;;;;;3.90;3.70;;;;;;;3.80;90.12;102029.28;4424961;32;20064;-73
2022/01/27 06:44:26;;;;;;;6.37;5.93;;;;;;;3.77;89.86;102006.78;4416003;32;20551;-75
2022/01/27 06:46:51;;;;;;;3.17;3.08;;;;;;;3.93;89.54;102028.38;4423813;32;20081;-73
2022/01/27 06:49:17;;;;;;;3.03;2.92;;;;;;;3.98;89.09;102021.44;4420966;32;20098;-75
2022/01/27 06:51:44;;;;;;;3.37;3.28;;;;;;;3.98;89.02;102021.44;4419828;32;20681;-74
2022/01/27 06:54:09;;;;;;;3.70;3.53;;;;;;;4.05;89.02;102008.41;4423523;32;20152;-76
2022/01/27 06:56:35;;;;;;;4.43;4.22;;;;;;;4.11;88.47;102008.38;4428269;32;20072;-74
2022/01/27 06:59:00;;;;;;;3.90;3.70;;;;;;;4.07;89.18;102011.88;4428541;32;20072;-73
2022/01/27 07:01:25;;;;;;;4.40;4.20;;;;;;;4.08;88.69;102016.22;4424757;32;20096;-73
2022/01/27 07:03:51;;;;;;;3.50;3.40;;;;;;;4.09;88.76;102018.81;4425160;32;20061;-73
2022/01/27 07:06:17;;;;;;;3.75;3.58;;;;;;;4.01;88.37;101986.81;4420193;32;20657;-73
2022/01/27 07:08:42;;;;;;;3.15;3.05;;;;;;;4.15;88.51;102013.59;4418224;32;20134;-73
2022/01/27 07:11:08;;;;;;;3.90;3.60;;;;;;;4.13;87.88;102007.53;4422556;32;20064;-75
2022/01/27 07:13:33;;;;;;;4.47;4.28;;;;;;;2.92;87.95;101806.34;4407243;32;20662;-75
2022/01/27 07:15:58;;;;;;;3.45;3.30;;;;;;;4.12;88.60;102010.13;4424284;32;20130;-73
2022/01/27 07:18:24;;;;;;;7.95;7.37;;;;;;;4.19;88.51;102009.25;4413746;32;20587;-72
2022/01/27 07:20:49;;;;;;;3.92;3.60;;;;;;;4.28;87.78;102016.13;4416271;32;20094;-72
2022/01/27 07:23:15;;;;;;;4.65;4.35;;;;;;;3.18;87.84;101840.00;4419244;32;20081;-75
2022/01/27 07:25:40;;;;;;;3.30;3.20;;;;;;;4.32;87.70;102013.50;4411729;32;20178;-72
2022/01/27 07:28:06;;;;;;;4.03;3.83;;;;;;;4.27;88.04;101991.88;4431228;32;20064;-74
2022/01/27 07:30:31;;;;;;;3.60;3.50;;;;;;;4.34;87.67;102000.50;4419083;32;20056;-71
2022/01/27 07:32:56;;;;;;;3.45;3.25;;;;;;;3.37;87.57;101833.03;4419592;32;20081;-72
2022/01/27 07:35:22;;;;;;;4.57;4.37;;;;;;;3.54;87.82;101851.09;4416240;32;20065;-73
2022/01/27 07:37:47;;;;;;;3.03;2.92;;;;;;;4.40;87.92;101990.91;4418612;32;20365;-71
2022/01/27 07:40:12;;;;;;;3.40;3.30;;;;;;;4.42;88.02;101996.13;4417799;32;20507;-71
2022/01/27 07:42:38;;;;;;;4.07;3.87;;;;;;;4.38;88.32;101990.06;4416155;32;20077;-72
2022/01/27 07:45:04;;;;;;;3.60;3.40;;;;;;;4.36;88.11;101964.97;4420923;32;20083;-73
2022/01/27 07:47:29;;;;;;;4.95;4.75;;;;;;;4.35;87.68;101953.72;4402110;32;20999;-71
2022/01/27 07:49:55;;;;;;;3.83;3.62;;;;;;;4.48;88.42;101977.03;4421999;32;20061;-72
2022/01/27 07:52:21;;;;;;;5.00;4.72;;;;;;;4.54;87.97;101979.59;4403225;32;20486;-72
2022/01/27 07:54:46;;;;;;;3.35;3.25;;;;;;;4.59;87.44;101968.28;4415608;32;20095;-72
2022/01/27 07:57:12;;;;;;;3.40;3.30;;;;;;;4.53;87.37;101957.94;4419893;32;20068;-72
2022/01/27 07:59:38;;;;;;;5.12;4.82;;;;;;;4.62;87.46;101956.13;4416052;32;20910;-72
2022/01/27 08:02:03;;;;;;;3.92;3.75;;;;;;;4.70;87.57;101954.34;4414620;32;20087;-74
2022/01/27 08:04:28;;;;;;;5.55;5.25;;;;;;;4.74;87.35;101974.25;4417207;32;20112;-72
2022/01/27 08:06:54;;;;;;;4.00;3.80;;;;;;;4.76;87.12;101975.94;4415563;32;20067;-72
2022/01/27 08:09:19;;;;;;;3.55;3.42;;;;;;;4.75;87.13;101982.03;4406274;32;20192;-73
2022/01/27 08:11:45;;;;;;;3.90;3.70;;;;;;;4.77;87.37;101982.00;4401695;32;20126;-72
2022/01/27 08:14:12;;;;;;;3.30;3.20;;;;;;;4.66;87.40;101969.09;4419158;32;20065;-74
2022/01/27 08:16:37;;;;;;;5.03;4.30;;;;;;;4.09;87.27;101896.72;4415547;32;20121;-74
2022/01/27 08:19:03;;;;;;;3.92;3.72;;;;;;;4.75;88.09;102001.97;4418816;32;20068;-72
2022/01/27 08:21:28;;;;;;;3.22;3.12;;;;;;;4.50;88.19;101947.53;4409598;32;20081;-72
2022/01/27 08:23:55;;;;;;;3.28;3.17;;;;;;;4.74;88.02;101988.09;4417405;32;20068;-73
2022/01/27 08:27:00;;;;;;;4.47;4.28;;;;;;;4.80;88.02;101992.41;4415012;32;20554;-73
2022/01/27 08:34:30;;;;;;;5.80;5.47;;;;;;;4.96;88.82;101969.75;4415083;32;20118;-74
2022/01/27 08:36:57;;;;;;;3.20;3.10;;;;;;;4.90;89.59;101983.66;4434215;32;20129;-73
2022/01/27 08:39:22;;;;;;;5.30;5.05;;;;;;;4.89;90.06;101988.84;4405539;32;20053;-75
2022/01/27 08:41:48;;;;;;;3.50;3.30;;;;;;;4.80;90.80;101972.44;4417449;32;20175;-73
2022/01/27 08:44:13;;;;;;;3.35;3.25;;;;;;;4.79;91.94;101975.06;4422958;32;20076;-74
2022/01/27 08:46:38;;;;;;;3.40;3.30;;;;;;;4.34;91.39;101899.13;4418148;32;20157;-71
2022/01/27 08:49:04;;;;;;;3.28;3.17;;;;;;;4.76;92.27;101964.69;4410325;32;20080;-73
2022/01/27 08:51:30;;;;;;;4.87;4.68;;;;;;;4.76;93.68;101970.75;4412943;32;20504;-74
2022/01/27 08:53:55;;;;;;;4.35;3.95;;;;;;;4.76;93.67;101977.69;4407958;32;20609;-73
2022/01/27 08:56:21;;;;;;;5.03;4.82;;;;;;;4.68;94.35;101969.94;4415143;32;20332;-73
2022/01/27 08:58:46;;;;;;;4.00;3.83;;;;;;;4.65;95.22;101988.19;4419868;32;20077;-72
2022/01/27 09:01:11;;;;;;;3.20;3.10;;;;;;;4.55;95.63;101970.91;4417209;32;20216;-71
2022/01/27 09:03:38;;;;;;;3.53;3.35;;;;;;;4.58;96.58;101982.16;4413694;32;22784;-73
2022/01/27 09:06:03;;;;;;;5.62;3.90;;;;;;;4.62;95.82;101987.34;4407167;32;20207;-73
2022/01/27 09:08:28;;;;;;;4.57;4.37;;;;;;;4.64;95.91;101986.44;4416361;32;20060;-71
2022/01/27 09:10:54;;;;;;;3.80;3.60;;;;;;;4.56;96.30;101967.44;4410036;32;20939;-70
2022/01/27 09:13:19;;;;;;;3.80;3.60;;;;;;;4.59;96.90;101973.47;4417482;32;20080;-74
2022/01/27 09:15:47;;;;;;;3.20;3.10;;;;;;;4.58;97.29;101978.69;4418883;32;22775;-72
2022/01/27 09:18:14;;;;;;;3.10;3.00;;;;;;;4.50;97.76;101957.94;4410854;32;20421;-72
2022/01/27 09:20:39;;;;;;;3.00;2.90;;;;;;;4.47;97.86;101950.19;4407972;32;20469;-72
2022/01/27 09:23:12;;;;;;;3.05;2.95;;;;;;;4.63;98.68;101961.34;4422666;32;20115;-72
2022/01/27 09:25:42;;;;;;;3.40;3.22;;;;;;;4.65;98.53;101967.38;4404915;32;20099;-73
2022/01/27 09:28:08;;;;;;;3.20;3.10;;;;;;;4.56;99.87;101962.25;4418915;32;20126;-74
2022/01/27 09:30:33;;;;;;;4.57;4.37;;;;;;;4.60;100.00;101958.75;4419226;32;20088;-72
2022/01/27 09:32:59;;;;;;;3.47;3.35;;;;;;;4.59;100.00;101968.28;4419361;32;20072;-73
2022/01/27 09:35:24;;;;;;;4.55;4.35;;;;;;;4.16;100.00;101905.31;4418423;32;20073;-73
2022/01/27 09:37:50;;;;;;;3.30;3.20;;;;;;;4.58;100.00;101969.16;4349694;32;20135;-72
2022/01/27 09:40:16;;;;;;;3.08;2.97;;;;;;;4.59;100.00;101960.50;4422826;32;20436;-74
2022/01/27 09:42:43;;;;;;;3.20;3.10;;;;;;;4.55;100.00;101968.28;4415175;32;20103;-72
2022/01/27 09:45:09;;;;;;;3.10;3.00;;;;;;;4.58;100.00;101968.28;4409265;32;20158;-73
2022/01/27 09:47:37;;;;;;;5.53;4.43;;;;;;;4.53;100.00;101964.84;4417675;32;20384;-72
2022/01/27 09:50:18;;;;;;;3.20;3.10;;;;;;;4.42;100.00;101971.88;4420890;32;20507;-73
2022/01/27 09:52:44;;;;;;;3.80;3.60;;;;;;;4.53;100.00;101959.66;4408723;32;20455;-73
2022/01/27 09:55:09;;;;;;;4.25;4.05;;;;;;;4.56;100.00;101963.09;4417833;32;20336;-72
2022/01/27 09:57:35;;;;;;;5.72;5.37;;;;;;;4.68;100.00;101966.50;4417398;32;20858;-72
2022/01/27 10:00:00;;;;;;;3.40;3.30;;;;;;;4.79;100.00;101975.06;4414613;32;20118;-71
2022/01/27 10:02:26;;;;;;;4.95;4.75;;;;;;;4.77;100.00;101967.28;4403279;32;20669;-71
2022/01/27 10:04:59;;;;;;;3.80;3.67;;;;;;;4.80;100.00;101967.25;4419935;32;20064;-75
2022/01/27 10:07:31;;;;;;;5.40;5.20;;;;;;;4.55;100.00;101908.50;4416856;32;20530;-73
2022/01/27 10:10:03;;;;;;;3.33;3.22;;;;;;;4.84;100.00;101962.03;4421367;32;20179;-72
2022/01/27 10:12:45;;;;;;;4.78;4.57;;;;;;;4.89;100.00;101965.44;4416443;32;20234;-72
2022/01/27 10:15:19;;;;;;;3.67;3.53;;;;;;;4.97;100.00;101958.44;4421196;32;21084;-74
2022/01/27 10:18:08;;;;;;;3.40;3.30;;;;;;;5.00;100.00;101987.03;4418702;32;20073;-74
2022/01/27 10:20:38;;;;;;;3.30;3.20;;;;;;;5.07;100.00;101949.69;4428893;32;20080;-71
2022/01/27 10:23:12;;;;;;;3.40;3.30;;;;;;;5.04;100.00;101941.06;4412997;32;20083;-75
2022/01/27 10:25:46;;;;;;;3.87;3.72;;;;;;;5.05;100.00;101941.06;4418909;32;20873;-73
2022/01/27 10:28:44;;;;;;;3.42;3.33;;;;;;;5.05;100.00;101943.66;4416160;32;20088;-73
2022/01/27 10:31:10;;;;;;;3.55;3.45;;;;;;;5.10;100.00;101949.66;4427843;32;20167;-73
2022/01/27 10:33:43;;;;;;;4.35;4.15;;;;;;;5.06;100.00;101941.91;4432609;32;20156;-73
2022/01/27 10:36:16;;;;;;;3.30;3.20;;;;;;;5.06;100.00;101940.16;4411815;32;20131;-71
2022/01/27 10:38:41;;;;;;;3.30;3.20;;;;;;;4.14;100.00;101796.19;4410136;32;20334;-73
2022/01/27 10:41:07;;;;;;;3.40;3.30;;;;;;;5.14;100.00;101935.75;4409636;32;20142;-73
2022/01/27 10:43:33;;;;;;;4.85;4.65;;;;;;;5.21;100.00;101941.75;4422049;32;20084;-74
2022/01/27 10:46:20;;;;;;;3.40;3.30;;;;;;;5.20;100.00;101940.03;4423320;32;20098;-74
2022/01/27 10:48:55;;;;;;;3.30;3.20;;;;;;;5.35;100.00;101939.00;4427537;32;20290;-73
2022/01/27 10:51:34;;;;;;;4.75;4.47;;;;;;;5.33;100.00;101940.75;4420671;32;20138;-74
2022/01/27 10:56:30;;;;;;;5.25;5.05;;;;;;;5.35;100.00;101939.88;4419476;32;20128;-74
2022/01/27 10:58:57;;;;;;;3.30;3.20;;;;;;;5.23;100.00;101947.78;4412976;32;20069;-72
2022/01/27 11:01:26;;;;;;;5.68;5.37;;;;;;;5.15;100.00;101940.09;4420329;32;20080;-78
2022/01/27 11:03:53;;;;;;;3.25;3.15;;;;;;;5.20;100.00;101940.03;4416534;32;20080;-72
2022/01/27 11:06:20;;;;;;;4.30;4.10;;;;;;;5.27;100.00;101956.44;4420518;32;20072;-72
2022/01/27 11:08:46;;;;;;;3.37;3.28;;;;;;;5.36;100.00;101936.38;4426923;32;20068;-72
2022/01/27 11:11:13;;;;;;;3.60;3.40;;;;;;;5.41;100.00;101923.31;4423981;32;20714;-72
2022/01/27 11:13:38;;;;;;;4.15;3.95;;;;;;;5.59;100.00;101932.66;4422538;32;20075;-74
2022/01/27 11:16:05;;;;;;;3.70;3.50;;;;;;;5.75;100.00;101928.13;4421769;32;20093;-73
2022/01/27 11:18:31;;;;;;;5.10;4.90;;;;;;;5.55;100.00;101912.75;4420000;32;20068;-73
2022/01/27 11:21:01;;;;;;;3.35;3.25;;;;;;;5.62;100.00;101918.75;4423048;32;20134;-73
2022/01/27 11:25:59;;;;;;;3.40;3.30;;;;;;;5.70;100.00;101906.50;4430213;32;20072;-73
2022/01/27 11:28:24;;;;;;;5.07;4.87;;;;;;;5.72;100.00;101896.94;4416475;32;20669;-74
2022/01/27 11:31:03;;;;;;;3.50;3.40;;;;;;;5.73;100.00;101896.91;4422299;32;20073;-74
2022/01/27 11:33:33;;;;;;;4.78;4.57;;;;;;;5.77;100.00;101900.31;4430962;32;20665;-73
2022/01/27 11:36:06;;;;;;;3.58;3.47;;;;;;;5.83;100.00;101902.00;4422540;32;20069;-72
2022/01/27 11:38:31;;;;;;;4.40;4.20;;;;;;;5.92;100.00;101902.72;4417557;32;20069;-73
2022/01/27 11:40:56;;;;;;;3.97;3.78;;;;;;;5.86;100.00;101907.16;4407541;32;20126;-74
2022/01/27 11:43:31;;;;;;;4.50;4.30;;;;;;;5.77;100.00;101879.47;4423386;32;20862;-73
2022/01/27 11:45:56;;;;;;;3.40;3.30;;;;;;;5.79;100.00;101891.63;4411108;32;20082;-73
2022/01/27 11:48:24;;;;;;;4.00;3.83;;;;;;;5.81;100.00;101896.78;4422714;32;20057;-72
2022/01/27 11:51:09;;;;;;;3.40;3.30;;;;;;;5.75;100.00;101889.06;4419316;32;20083;-72
2022/01/27 11:53:45;;;;;;;5.45;5.15;;;;;;;5.74;100.00;101877.78;4418191;32;20339;-74
2022/01/27 11:56:30;;;;;;;3.60;3.50;;;;;;;5.62;100.00;101883.16;4426179;32;20601;-70
2022/01/27 11:59:08;;;;;;;3.30;3.20;;;;;;;5.63;100.00;101889.22;4428709;32;20072;-72
2022/01/27 12:01:37;;;;;;;3.45;3.35;;;;;;;5.63;100.00;101882.25;4423831;32;20060;-72
2022/01/27 12:04:02;;;;;;;3.40;3.30;;;;;;;5.65;100.00;101882.25;4415966;32;20523;-74
2022/01/27 12:06:28;;;;;;;4.93;4.72;;;;;;;5.69;100.00;101881.31;4444074;32;20597;-71
2022/01/27 12:09:22;;;;;;;3.53;3.42;;;;;;;5.64;100.00;101880.53;4418745;32;20076;-70
2022/01/27 12:11:58;;;;;;;3.50;3.40;;;;;;;5.68;100.00;101871.81;4437999;32;20057;-72
2022/01/27 12:14:27;;;;;;;5.43;5.20;;;;;;;5.56;100.00;101884.09;4437977;32;20148;-72
2022/01/27 12:17:08;;;;;;;3.60;3.50;;;;;;;5.52;100.00;101878.94;4407616;32;20444;-71
2022/01/27 12:19:59;;;;;;;5.28;5.07;;;;;;;5.57;100.00;101882.34;4427850;32;20083;-73
2022/01/27 12:22:46;;;;;;;5.75;5.45;;;;;;;5.55;100.00;101882.38;4403219;32;20069;-74
2022/01/27 12:25:12;;;;;;;3.97;3.78;;;;;;;5.46;100.00;101866.00;4421446;32;20076;-73
2022/01/27 12:27:38;;;;;;;4.32;4.12;;;;;;;5.44;100.00;101854.75;4409449;32;20898;-72